sensor_id;sensor_type;location;lat;lon;timestamp;pressure;altitude;pressure_sealevel;temperature;humidity
58373;BME280;44177;43.356;27.672;2022-07-10T00:01:49;97545.75;;;20.74;58.04
58373;BME280;44177;43.356;27.672;2022-07-10T00:04:15;97527.00;;;20.62;58.37
58373;BME280;44177;43.356;27.672;2022-07-10T00:06:41;97532.00;;;20.50;58.94
58373;BME280;44177;43.356;27.672;2022-07-10T00:09:08;97542.50;;;20.59;58.75
58373;BME280;44177;43.356;27.672;2022-07-10T00:11:33;97527.06;;;20.42;59.19
58373;BME280;44177;43.356;27.672;2022-07-10T00:13:59;97518.28;;;20.27;59.49
58373;BME280;44177;43.356;27.672;2022-07-10T00:16:24;97527.56;;;20.16;59.95
58373;BME280;44177;43.356;27.672;2022-07-10T00:18:51;97537.81;;;20.19;60.01
58373;BME280;44177;43.356;27.672;2022-07-10T00:21:16;97535.25;;;20.09;60.72
58373;BME280;44177;43.356;27.672;2022-07-10T00:23:42;97527.38;;;20.07;60.47
58373;BME280;44177;43.356;27.672;2022-07-10T00:26:08;97527.19;;;19.98;60.95
58373;BME280;44177;43.356;27.672;2022-07-10T00:28:34;97549.88;;;20.09;60.81
58373;BME280;44177;43.356;27.672;2022-07-10T00:31:00;97536.69;;;19.97;61.34
58373;BME280;44177;43.356;27.672;2022-07-10T00:33:26;97544.25;;;20.13;61.01
58373;BME280;44177;43.356;27.672;2022-07-10T00:35:53;97534.28;;;19.99;60.94
58373;BME280;44177;43.356;27.672;2022-07-10T00:38:19;97553.50;;;20.06;60.70
58373;BME280;44177;43.356;27.672;2022-07-10T00:40:44;97571.94;;;20.13;60.67
58373;BME280;44177;43.356;27.672;2022-07-10T00:43:10;97552.78;;;20.02;60.56
58373;BME280;44177;43.356;27.672;2022-07-10T00:45:36;97558.69;;;20.04;60.71
58373;BME280;44177;43.356;27.672;2022-07-10T00:48:02;97564.94;;;20.08;60.55
58373;BME280;44177;43.356;27.672;2022-07-10T00:50:28;97558.81;;;19.97;60.88
58373;BME280;44177;43.356;27.672;2022-07-10T00:52:54;97534.66;;;19.77;61.23
58373;BME280;44177;43.356;27.672;2022-07-10T00:55:20;97532.69;;;19.78;60.88
58373;BME280;44177;43.356;27.672;2022-07-10T00:57:46;97554.50;;;19.96;60.62
58373;BME280;44177;43.356;27.672;2022-07-10T01:00:12;97518.19;;;19.70;61.09
58373;BME280;44177;43.356;27.672;2022-07-10T01:02:44;97549.97;;;19.82;61.08
58373;BME280;44177;43.356;27.672;2022-07-10T01:05:10;97525.22;;;19.75;60.94
58373;BME280;44177;43.356;27.672;2022-07-10T01:07:36;97525.91;;;19.59;61.45
58373;BME280;44177;43.356;27.672;2022-07-10T01:10:02;97536.72;;;19.73;61.88
58373;BME280;44177;43.356;27.672;2022-07-10T01:12:28;97530.53;;;19.65;61.82
58373;BME280;44177;43.356;27.672;2022-07-10T01:14:54;97537.91;;;19.72;61.61
58373;BME280;44177;43.356;27.672;2022-07-10T01:17:21;97534.66;;;19.77;61.85
58373;BME280;44177;43.356;27.672;2022-07-10T01:19:47;97529.97;;;19.74;61.57
58373;BME280;44177;43.356;27.672;2022-07-10T01:22:13;97537.06;;;19.75;61.81
58373;BME280;44177;43.356;27.672;2022-07-10T01:24:38;97517.25;;;19.56;61.78
58373;BME280;44177;43.356;27.672;2022-07-10T01:27:04;97530.19;;;19.63;61.61
58373;BME280;44177;43.356;27.672;2022-07-10T01:29:30;97540.59;;;19.55;62.12
58373;BME280;44177;43.356;27.672;2022-07-10T01:31:55;97523.81;;;19.42;62.30
58373;BME280;44177;43.356;27.672;2022-07-10T01:34:22;97503.09;;;19.31;62.32
58373;BME280;44177;43.356;27.672;2022-07-10T01:36:47;97530.94;;;19.64;62.08
58373;BME280;44177;43.356;27.672;2022-07-10T01:39:13;97533.59;;;19.71;62.02
58373;BME280;44177;43.356;27.672;2022-07-10T01:41:39;97503.84;;;19.55;61.75
58373;BME280;44177;43.356;27.672;2022-07-10T01:44:04;97515.22;;;19.61;61.54
58373;BME280;44177;43.356;27.672;2022-07-10T01:46:30;97526.84;;;19.72;61.77
58373;BME280;44177;43.356;27.672;2022-07-10T01:48:56;97527.66;;;19.72;61.81
58373;BME280;44177;43.356;27.672;2022-07-10T01:51:22;97496.38;;;19.52;62.11
58373;BME280;44177;43.356;27.672;2022-07-10T01:53:47;97517.84;;;19.68;61.86
58373;BME280;44177;43.356;27.672;2022-07-10T01:56:14;97516.16;;;19.74;61.50
58373;BME280;44177;43.356;27.672;2022-07-10T01:58:40;97516.22;;;19.70;61.66
58373;BME280;44177;43.356;27.672;2022-07-10T02:01:07;97512.38;;;19.64;61.67
58373;BME280;44177;43.356;27.672;2022-07-10T02:03:33;97507.53;;;19.48;61.90
58373;BME280;44177;43.356;27.672;2022-07-10T02:06:16;97498.84;;;19.46;61.61
58373;BME280;44177;43.356;27.672;2022-07-10T02:08:42;97498.78;;;19.50;61.31
58373;BME280;44177;43.356;27.672;2022-07-10T02:11:08;97488.22;;;19.45;60.98
58373;BME280;44177;43.356;27.672;2022-07-10T02:13:33;97524.72;;;19.60;60.59
58373;BME280;44177;43.356;27.672;2022-07-10T02:15:59;97489.38;;;19.47;60.77
58373;BME280;44177;43.356;27.672;2022-07-10T02:18:24;97505.81;;;19.54;60.70
58373;BME280;44177;43.356;27.672;2022-07-10T02:20:51;97518.69;;;19.65;60.65
58373;BME280;44177;43.356;27.672;2022-07-10T02:23:17;97490.28;;;19.40;60.93
58373;BME280;44177;43.356;27.672;2022-07-10T02:25:43;97496.31;;;19.55;60.24
58373;BME280;44177;43.356;27.672;2022-07-10T02:28:09;97506.91;;;19.61;60.54
58373;BME280;44177;43.356;27.672;2022-07-10T02:30:35;97494.00;;;19.54;60.25
58373;BME280;44177;43.356;27.672;2022-07-10T02:33:01;97514.34;;;19.64;60.32
58373;BME280;44177;43.356;27.672;2022-07-10T02:35:26;97489.59;;;19.56;59.93
58373;BME280;44177;43.356;27.672;2022-07-10T02:37:52;97499.53;;;19.74;59.64
58373;BME280;44177;43.356;27.672;2022-07-10T02:40:17;97465.53;;;19.53;59.38
58373;BME280;44177;43.356;27.672;2022-07-10T02:42:42;97489.22;;;19.54;59.29
58373;BME280;44177;43.356;27.672;2022-07-10T02:45:08;97496.97;;;19.63;59.17
58373;BME280;44177;43.356;27.672;2022-07-10T02:47:34;97493.31;;;19.46;59.40
58373;BME280;44177;43.356;27.672;2022-07-10T02:50:00;97501.03;;;19.59;59.45
58373;BME280;44177;43.356;27.672;2022-07-10T02:52:26;97517.13;;;19.64;59.08
58373;BME280;44177;43.356;27.672;2022-07-10T02:54:52;97505.31;;;19.39;59.25
58373;BME280;44177;43.356;27.672;2022-07-10T02:57:18;97522.50;;;19.51;59.49
58373;BME280;44177;43.356;27.672;2022-07-10T02:59:43;97509.03;;;19.53;58.95
58373;BME280;44177;43.356;27.672;2022-07-10T03:02:09;97516.94;;;19.51;58.80
58373;BME280;44177;43.356;27.672;2022-07-10T03:04:35;97510.22;;;19.52;58.68
58373;BME280;44177;43.356;27.672;2022-07-10T03:07:00;97524.22;;;19.65;58.38
58373;BME280;44177;43.356;27.672;2022-07-10T03:09:26;97513.41;;;19.50;58.25
58373;BME280;44177;43.356;27.672;2022-07-10T03:11:52;97545.72;;;19.77;58.26
58373;BME280;44177;43.356;27.672;2022-07-10T03:14:18;97529.81;;;19.61;57.73
58373;BME280;44177;43.356;27.672;2022-07-10T03:16:44;97531.88;;;19.57;58.14
58373;BME280;44177;43.356;27.672;2022-07-10T03:19:09;97530.13;;;19.67;57.56
58373;BME280;44177;43.356;27.672;2022-07-10T03:21:35;97535.34;;;19.61;57.83
58373;BME280;44177;43.356;27.672;2022-07-10T03:24:00;97529.72;;;19.45;57.91
58373;BME280;44177;43.356;27.672;2022-07-10T03:26:26;97556.88;;;19.50;58.70
58373;BME280;44177;43.356;27.672;2022-07-10T03:28:54;97543.25;;;19.39;58.69
58373;BME280;44177;43.356;27.672;2022-07-10T03:31:20;97560.63;;;19.39;58.58
58373;BME280;44177;43.356;27.672;2022-07-10T03:33:45;97562.91;;;19.45;58.63
58373;BME280;44177;43.356;27.672;2022-07-10T03:36:11;97540.28;;;19.26;59.05
58373;BME280;44177;43.356;27.672;2022-07-10T03:38:38;97552.56;;;19.49;58.93
58373;BME280;44177;43.356;27.672;2022-07-10T03:41:04;97563.06;;;19.57;58.52
58373;BME280;44177;43.356;27.672;2022-07-10T03:43:29;97520.84;;;19.53;58.37
58373;BME280;44177;43.356;27.672;2022-07-10T03:45:56;97522.50;;;19.51;57.90
58373;BME280;44177;43.356;27.672;2022-07-10T03:48:22;97560.03;;;19.72;57.89
58373;BME280;44177;43.356;27.672;2022-07-10T03:50:50;97526.34;;;19.57;57.99
58373;BME280;44177;43.356;27.672;2022-07-10T03:53:16;97531.09;;;19.56;58.04
58373;BME280;44177;43.356;27.672;2022-07-10T03:55:42;97548.69;;;19.66;57.97
58373;BME280;44177;43.356;27.672;2022-07-10T03:58:07;97534.28;;;19.55;58.28
58373;BME280;44177;43.356;27.672;2022-07-10T04:00:32;97561.75;;;19.66;58.23
58373;BME280;44177;43.356;27.672;2022-07-10T04:03:04;97552.19;;;19.70;58.48
58373;BME280;44177;43.356;27.672;2022-07-10T04:05:31;97553.00;;;19.67;58.48
58373;BME280;44177;43.356;27.672;2022-07-10T04:07:57;97537.22;;;19.68;58.27
58373;BME280;44177;43.356;27.672;2022-07-10T04:10:24;97536.47;;;19.64;58.48
58373;BME280;44177;43.356;27.672;2022-07-10T04:12:50;97538.06;;;19.65;58.29
58373;BME280;44177;43.356;27.672;2022-07-10T04:15:16;97528.75;;;19.55;58.37
58373;BME280;44177;43.356;27.672;2022-07-10T04:17:42;97527.41;;;19.63;58.24
58373;BME280;44177;43.356;27.672;2022-07-10T04:20:08;97528.34;;;19.77;57.87
58373;BME280;44177;43.356;27.672;2022-07-10T04:22:34;97533.69;;;19.87;57.78
58373;BME280;44177;43.356;27.672;2022-07-10T04:25:00;97521.06;;;19.86;57.79
58373;BME280;44177;43.356;27.672;2022-07-10T04:27:26;97526.53;;;20.10;57.81
58373;BME280;44177;43.356;27.672;2022-07-10T04:29:51;97547.16;;;20.26;57.43
58373;BME280;44177;43.356;27.672;2022-07-10T04:32:17;97547.09;;;20.29;57.14
58373;BME280;44177;43.356;27.672;2022-07-10T04:34:43;97533.63;;;20.11;57.59
58373;BME280;44177;43.356;27.672;2022-07-10T04:37:09;97557.47;;;20.25;58.02
58373;BME280;44177;43.356;27.672;2022-07-10T04:39:35;97556.56;;;20.32;57.80
58373;BME280;44177;43.356;27.672;2022-07-10T04:42:01;97544.59;;;20.35;56.74
58373;BME280;44177;43.356;27.672;2022-07-10T04:44:28;97543.13;;;20.30;57.09
58373;BME280;44177;43.356;27.672;2022-07-10T04:46:54;97548.81;;;20.23;57.32
58373;BME280;44177;43.356;27.672;2022-07-10T04:49:19;97539.06;;;20.35;57.33
58373;BME280;44177;43.356;27.672;2022-07-10T04:51:44;97556.50;;;20.52;57.46
58373;BME280;44177;43.356;27.672;2022-07-10T04:54:10;97544.69;;;20.68;56.94
58373;BME280;44177;43.356;27.672;2022-07-10T04:56:35;97560.75;;;20.77;56.45
58373;BME280;44177;43.356;27.672;2022-07-10T04:59:01;97543.19;;;20.63;56.11
58373;BME280;44177;43.356;27.672;2022-07-10T05:01:27;97556.34;;;20.79;55.65
58373;BME280;44177;43.356;27.672;2022-07-10T05:03:53;97540.56;;;20.76;55.94
58373;BME280;44177;43.356;27.672;2022-07-10T05:06:18;97553.06;;;21.01;55.56
58373;BME280;44177;43.356;27.672;2022-07-10T05:08:44;97554.81;;;20.95;55.87
58373;BME280;44177;43.356;27.672;2022-07-10T05:11:09;97552.34;;;20.97;55.71
58373;BME280;44177;43.356;27.672;2022-07-10T05:13:36;97553.94;;;21.14;55.58
58373;BME280;44177;43.356;27.672;2022-07-10T05:16:02;97553.75;;;21.22;55.17
58373;BME280;44177;43.356;27.672;2022-07-10T05:18:28;97552.19;;;21.21;54.93
58373;BME280;44177;43.356;27.672;2022-07-10T05:20:54;97557.56;;;21.28;54.67
58373;BME280;44177;43.356;27.672;2022-07-10T05:23:19;97576.88;;;21.48;54.79
58373;BME280;44177;43.356;27.672;2022-07-10T05:25:45;97564.75;;;21.58;54.49
58373;BME280;44177;43.356;27.672;2022-07-10T05:28:10;97576.75;;;21.85;54.20
58373;BME280;44177;43.356;27.672;2022-07-10T05:30:38;97546.97;;;21.72;53.19
58373;BME280;44177;43.356;27.672;2022-07-10T05:33:03;97556.44;;;21.88;52.92
58373;BME280;44177;43.356;27.672;2022-07-10T05:35:29;97552.78;;;21.91;52.51
58373;BME280;44177;43.356;27.672;2022-07-10T05:37:54;97552.88;;;21.87;53.23
58373;BME280;44177;43.356;27.672;2022-07-10T05:40:20;97550.44;;;21.89;52.43
58373;BME280;44177;43.356;27.672;2022-07-10T05:42:45;97548.47;;;21.90;52.56
58373;BME280;44177;43.356;27.672;2022-07-10T05:45:11;97545.97;;;22.08;52.43
58373;BME280;44177;43.356;27.672;2022-07-10T05:47:37;97559.72;;;22.42;51.61
58373;BME280;44177;43.356;27.672;2022-07-10T05:50:03;97562.75;;;22.47;50.56
58373;BME280;44177;43.356;27.672;2022-07-10T05:52:29;97556.53;;;22.56;50.59
58373;BME280;44177;43.356;27.672;2022-07-10T05:54:57;97576.66;;;22.73;50.49
58373;BME280;44177;43.356;27.672;2022-07-10T05:57:23;97555.09;;;22.77;50.10
58373;BME280;44177;43.356;27.672;2022-07-10T05:59:50;97552.53;;;22.83;49.77
58373;BME280;44177;43.356;27.672;2022-07-10T06:02:15;97560.78;;;22.99;49.28
58373;BME280;44177;43.356;27.672;2022-07-10T06:04:41;97564.00;;;23.24;48.77
58373;BME280;44177;43.356;27.672;2022-07-10T06:07:07;97558.31;;;23.27;48.12
58373;BME280;44177;43.356;27.672;2022-07-10T06:09:33;97563.25;;;23.45;48.55
58373;BME280;44177;43.356;27.672;2022-07-10T06:11:59;97552.25;;;23.42;47.47
58373;BME280;44177;43.356;27.672;2022-07-10T06:14:24;97563.97;;;23.72;48.48
58373;BME280;44177;43.356;27.672;2022-07-10T06:16:50;97544.81;;;23.74;47.51
58373;BME280;44177;43.356;27.672;2022-07-10T06:19:15;97567.91;;;23.96;46.59
58373;BME280;44177;43.356;27.672;2022-07-10T06:21:42;97559.06;;;24.11;45.28
58373;BME280;44177;43.356;27.672;2022-07-10T06:24:08;97546.84;;;24.40;45.77
58373;BME280;44177;43.356;27.672;2022-07-10T06:26:33;97545.81;;;24.78;44.67
58373;BME280;44177;43.356;27.672;2022-07-10T06:28:59;97556.47;;;25.11;44.24
58373;BME280;44177;43.356;27.672;2022-07-10T06:31:24;97563.00;;;25.27;43.66
58373;BME280;44177;43.356;27.672;2022-07-10T06:33:50;97545.72;;;25.50;43.27
58373;BME280;44177;43.356;27.672;2022-07-10T06:36:15;97549.44;;;25.94;41.60
58373;BME280;44177;43.356;27.672;2022-07-10T06:38:41;97530.03;;;25.90;41.80
58373;BME280;44177;43.356;27.672;2022-07-10T06:41:07;97533.25;;;26.26;42.04
58373;BME280;44177;43.356;27.672;2022-07-10T06:43:32;97537.19;;;26.71;40.78
58373;BME280;44177;43.356;27.672;2022-07-10T06:45:57;97529.72;;;26.68;40.15
58373;BME280;44177;43.356;27.672;2022-07-10T06:48:26;97538.13;;;26.77;39.04
58373;BME280;44177;43.356;27.672;2022-07-10T06:50:52;97548.13;;;26.93;39.83
58373;BME280;44177;43.356;27.672;2022-07-10T06:53:17;97529.75;;;27.02;39.00
58373;BME280;44177;43.356;27.672;2022-07-10T06:55:43;97545.78;;;27.01;39.44
58373;BME280;44177;43.356;27.672;2022-07-10T06:58:09;97558.16;;;27.09;39.39
58373;BME280;44177;43.356;27.672;2022-07-10T07:00:35;97545.47;;;26.99;38.55
58373;BME280;44177;43.356;27.672;2022-07-10T07:03:00;97536.66;;;27.16;39.35
58373;BME280;44177;43.356;27.672;2022-07-10T07:05:26;97537.03;;;27.08;39.09
58373;BME280;44177;43.356;27.672;2022-07-10T07:07:51;97535.56;;;27.22;38.80
58373;BME280;44177;43.356;27.672;2022-07-10T07:10:17;97535.06;;;27.24;37.65
58373;BME280;44177;43.356;27.672;2022-07-10T07:12:42;97539.38;;;27.34;37.82
58373;BME280;44177;43.356;27.672;2022-07-10T07:15:08;97543.03;;;27.50;37.79
58373;BME280;44177;43.356;27.672;2022-07-10T07:17:39;97547.06;;;27.49;37.42
58373;BME280;44177;43.356;27.672;2022-07-10T07:20:25;97549.31;;;27.60;37.86
58373;BME280;44177;43.356;27.672;2022-07-10T07:23:09;97531.34;;;27.66;37.19
58373;BME280;44177;43.356;27.672;2022-07-10T07:25:35;97563.91;;;28.03;37.49
58373;BME280;44177;43.356;27.672;2022-07-10T07:28:01;97545.03;;;27.73;37.34
58373;BME280;44177;43.356;27.672;2022-07-10T07:30:28;97544.19;;;27.97;37.81
58373;BME280;44177;43.356;27.672;2022-07-10T07:32:54;97529.50;;;28.02;36.81
58373;BME280;44177;43.356;27.672;2022-07-10T07:35:19;97558.38;;;28.33;36.34
58373;BME280;44177;43.356;27.672;2022-07-10T07:37:49;97543.47;;;27.87;36.21
58373;BME280;44177;43.356;27.672;2022-07-10T07:40:20;97537.34;;;27.59;37.45
58373;BME280;44177;43.356;27.672;2022-07-10T07:42:51;97536.56;;;27.58;37.53
58373;BME280;44177;43.356;27.672;2022-07-10T07:45:19;97562.91;;;27.91;37.17
58373;BME280;44177;43.356;27.672;2022-07-10T07:47:55;97551.94;;;28.02;37.84
58373;BME280;44177;43.356;27.672;2022-07-10T07:50:26;97538.44;;;28.31;37.29
58373;BME280;44177;43.356;27.672;2022-07-10T07:52:54;97543.66;;;28.53;38.14
58373;BME280;44177;43.356;27.672;2022-07-10T07:55:21;97555.25;;;28.46;36.76
58373;BME280;44177;43.356;27.672;2022-07-10T07:57:47;97559.69;;;28.37;37.01
58373;BME280;44177;43.356;27.672;2022-07-10T08:00:14;97557.09;;;28.49;37.14
58373;BME280;44177;43.356;27.672;2022-07-10T08:02:43;97526.03;;;28.52;37.22
58373;BME280;44177;43.356;27.672;2022-07-10T08:05:09;97534.16;;;28.65;36.18
58373;BME280;44177;43.356;27.672;2022-07-10T08:07:36;97549.06;;;28.72;36.87
58373;BME280;44177;43.356;27.672;2022-07-10T08:10:04;97530.03;;;28.76;36.49
58373;BME280;44177;43.356;27.672;2022-07-10T08:12:30;97533.38;;;28.95;36.65
58373;BME280;44177;43.356;27.672;2022-07-10T08:14:55;97549.00;;;29.02;36.05
58373;BME280;44177;43.356;27.672;2022-07-10T08:17:21;97533.66;;;29.18;35.86
58373;BME280;44177;43.356;27.672;2022-07-10T08:19:47;97526.72;;;29.13;36.16
58373;BME280;44177;43.356;27.672;2022-07-10T08:22:12;97540.41;;;29.26;36.60
58373;BME280;44177;43.356;27.672;2022-07-10T08:24:38;97548.75;;;29.56;36.08
58373;BME280;44177;43.356;27.672;2022-07-10T08:27:04;97553.88;;;29.37;35.09
58373;BME280;44177;43.356;27.672;2022-07-10T08:29:31;97561.78;;;29.80;35.62
58373;BME280;44177;43.356;27.672;2022-07-10T08:31:56;97550.41;;;29.89;35.08
58373;BME280;44177;43.356;27.672;2022-07-10T08:34:22;97536.13;;;29.72;35.01
58373;BME280;44177;43.356;27.672;2022-07-10T08:36:47;97547.13;;;29.70;34.57
58373;BME280;44177;43.356;27.672;2022-07-10T08:39:13;97550.97;;;29.72;34.05
58373;BME280;44177;43.356;27.672;2022-07-10T08:41:42;97551.25;;;29.95;33.44
58373;BME280;44177;43.356;27.672;2022-07-10T08:44:08;97559.47;;;29.99;33.61
58373;BME280;44177;43.356;27.672;2022-07-10T08:46:34;97558.50;;;30.02;33.92
58373;BME280;44177;43.356;27.672;2022-07-10T08:49:05;97548.44;;;29.95;33.16
58373;BME280;44177;43.356;27.672;2022-07-10T08:51:38;97549.28;;;30.28;33.28
58373;BME280;44177;43.356;27.672;2022-07-10T08:54:07;97554.78;;;30.43;31.43
58373;BME280;44177;43.356;27.672;2022-07-10T08:56:33;97538.63;;;30.37;33.04
58373;BME280;44177;43.356;27.672;2022-07-10T08:59:00;97558.50;;;30.54;33.27
58373;BME280;44177;43.356;27.672;2022-07-10T09:01:27;97555.00;;;30.65;32.80
58373;BME280;44177;43.356;27.672;2022-07-10T09:03:52;97537.59;;;30.67;33.65
58373;BME280;44177;43.356;27.672;2022-07-10T09:06:18;97530.22;;;30.69;33.51
58373;BME280;44177;43.356;27.672;2022-07-10T09:09:04;97533.34;;;30.19;32.65
58373;BME280;44177;43.356;27.672;2022-07-10T09:11:31;97558.16;;;30.73;33.24
58373;BME280;44177;43.356;27.672;2022-07-10T09:13:59;97547.69;;;30.79;31.79
58373;BME280;44177;43.356;27.672;2022-07-10T09:16:32;97547.50;;;30.88;32.55
58373;BME280;44177;43.356;27.672;2022-07-10T09:21:44;97534.97;;;31.33;31.61
58373;BME280;44177;43.356;27.672;2022-07-10T09:24:10;97547.25;;;31.30;31.04
58373;BME280;44177;43.356;27.672;2022-07-10T09:26:36;97551.59;;;31.31;31.66
58373;BME280;44177;43.356;27.672;2022-07-10T09:34:47;97524.78;;;31.41;30.49
58373;BME280;44177;43.356;27.672;2022-07-10T09:37:28;97545.66;;;31.72;29.43
58373;BME280;44177;43.356;27.672;2022-07-10T09:39:56;97539.78;;;31.21;30.63
58373;BME280;44177;43.356;27.672;2022-07-10T09:42:26;97544.25;;;31.01;30.00
58373;BME280;44177;43.356;27.672;2022-07-10T09:44:58;97521.19;;;30.97;30.83
58373;BME280;44177;43.356;27.672;2022-07-10T09:48:02;97547.88;;;30.70;30.96
58373;BME280;44177;43.356;27.672;2022-07-10T09:50:31;97551.19;;;30.68;31.91
58373;BME280;44177;43.356;27.672;2022-07-10T09:53:05;97540.94;;;31.03;31.54
58373;BME280;44177;43.356;27.672;2022-07-10T09:55:35;97509.97;;;31.03;32.10
58373;BME280;44177;43.356;27.672;2022-07-10T09:58:01;97544.03;;;31.05;32.23
58373;BME280;44177;43.356;27.672;2022-07-10T10:00:33;97524.56;;;31.07;32.14
58373;BME280;44177;43.356;27.672;2022-07-10T10:03:00;97540.16;;;31.46;32.08
58373;BME280;44177;43.356;27.672;2022-07-10T10:05:35;97541.16;;;31.43;31.91
58373;BME280;44177;43.356;27.672;2022-07-10T10:08:16;97538.16;;;31.58;31.82
58373;BME280;44177;43.356;27.672;2022-07-10T10:10:47;97523.50;;;31.42;30.80
58373;BME280;44177;43.356;27.672;2022-07-10T10:13:21;97531.69;;;31.40;29.83
58373;BME280;44177;43.356;27.672;2022-07-10T10:15:49;97528.25;;;31.19;30.04
58373;BME280;44177;43.356;27.672;2022-07-10T10:18:17;97520.69;;;31.42;31.35
58373;BME280;44177;43.356;27.672;2022-07-10T10:20:45;97527.06;;;31.43;30.55
58373;BME280;44177;43.356;27.672;2022-07-10T10:23:14;97497.88;;;31.40;29.45
58373;BME280;44177;43.356;27.672;2022-07-10T10:25:42;97523.88;;;31.67;29.34
58373;BME280;44177;43.356;27.672;2022-07-10T10:28:09;97510.44;;;31.45;29.04
58373;BME280;44177;43.356;27.672;2022-07-10T10:30:37;97510.03;;;31.69;30.30
58373;BME280;44177;43.356;27.672;2022-07-10T10:33:53;97529.53;;;31.78;30.29
58373;BME280;44177;43.356;27.672;2022-07-10T10:35:51;97529.06;;;31.97;28.81
58373;BME280;44177;43.356;27.672;2022-07-10T10:38:16;97519.84;;;32.02;29.29
58373;BME280;44177;43.356;27.672;2022-07-10T10:40:42;97504.22;;;32.07;28.52
58373;BME280;44177;43.356;27.672;2022-07-10T10:43:20;97517.09;;;32.25;28.58
58373;BME280;44177;43.356;27.672;2022-07-10T10:45:47;97503.25;;;32.38;28.42
58373;BME280;44177;43.356;27.672;2022-07-10T10:48:14;97508.13;;;32.43;27.91
58373;BME280;44177;43.356;27.672;2022-07-10T10:50:50;97514.25;;;32.25;28.32
58373;BME280;44177;43.356;27.672;2022-07-10T10:53:17;97519.41;;;31.43;28.12
58373;BME280;44177;43.356;27.672;2022-07-10T10:58:37;97530.72;;;31.49;27.92
58373;BME280;44177;43.356;27.672;2022-07-10T11:09:30;97510.91;;;31.32;29.85
58373;BME280;44177;43.356;27.672;2022-07-10T11:14:29;97510.38;;;31.28;28.46
58373;BME280;44177;43.356;27.672;2022-07-10T11:16:55;97515.25;;;31.33;28.43
58373;BME280;44177;43.356;27.672;2022-07-10T11:19:27;97510.78;;;31.09;29.03
58373;BME280;44177;43.356;27.672;2022-07-10T11:22:40;97514.44;;;30.83;28.53
58373;BME280;44177;43.356;27.672;2022-07-10T11:27:57;97516.78;;;30.91;27.69
58373;BME280;44177;43.356;27.672;2022-07-10T11:30:26;97500.22;;;30.61;28.75
58373;BME280;44177;43.356;27.672;2022-07-10T11:32:52;97508.66;;;30.61;29.34
58373;BME280;44177;43.356;27.672;2022-07-10T11:35:18;97509.97;;;31.03;29.92
58373;BME280;44177;43.356;27.672;2022-07-10T11:37:53;97500.16;;;31.42;28.58
58373;BME280;44177;43.356;27.672;2022-07-10T11:40:19;97503.41;;;31.84;28.53
58373;BME280;44177;43.356;27.672;2022-07-10T11:42:53;97512.09;;;31.74;27.24
58373;BME280;44177;43.356;27.672;2022-07-10T11:45:29;97511.72;;;31.44;27.21
58373;BME280;44177;43.356;27.672;2022-07-10T11:47:56;97508.69;;;31.04;26.95
58373;BME280;44177;43.356;27.672;2022-07-10T11:50:23;97498.00;;;30.76;27.18
58373;BME280;44177;43.356;27.672;2022-07-10T11:52:49;97524.88;;;30.77;27.63
58373;BME280;44177;43.356;27.672;2022-07-10T11:55:19;97521.72;;;30.64;28.45
58373;BME280;44177;43.356;27.672;2022-07-10T11:57:45;97507.94;;;30.39;27.33
58373;BME280;44177;43.356;27.672;2022-07-10T12:00:30;97513.88;;;30.15;28.89
58373;BME280;44177;43.356;27.672;2022-07-10T12:02:57;97523.66;;;30.20;29.79
58373;BME280;44177;43.356;27.672;2022-07-10T12:05:41;97519.22;;;30.13;29.49
58373;BME280;44177;43.356;27.672;2022-07-10T12:08:07;97525.41;;;30.17;29.69
58373;BME280;44177;43.356;27.672;2022-07-10T12:10:33;97503.69;;;30.18;29.71
58373;BME280;44177;43.356;27.672;2022-07-10T12:13:10;97513.25;;;30.32;29.71
58373;BME280;44177;43.356;27.672;2022-07-10T12:15:40;97520.09;;;30.51;30.48
58373;BME280;44177;43.356;27.672;2022-07-10T12:18:21;97503.31;;;30.63;28.77
58373;BME280;44177;43.356;27.672;2022-07-10T12:20:48;97507.34;;;30.94;28.64
58373;BME280;44177;43.356;27.672;2022-07-10T12:23:18;97491.44;;;30.91;27.97
58373;BME280;44177;43.356;27.672;2022-07-10T12:25:45;97499.41;;;30.98;27.31
58373;BME280;44177;43.356;27.672;2022-07-10T12:28:12;97496.34;;;30.96;27.19
58373;BME280;44177;43.356;27.672;2022-07-10T12:30:45;97516.09;;;30.64;27.39
58373;BME280;44177;43.356;27.672;2022-07-10T12:33:19;97511.69;;;30.57;28.19
58373;BME280;44177;43.356;27.672;2022-07-10T12:35:49;97503.25;;;30.57;28.48
58373;BME280;44177;43.356;27.672;2022-07-10T12:38:28;97499.59;;;30.83;28.33
58373;BME280;44177;43.356;27.672;2022-07-10T12:41:07;97494.13;;;30.68;28.36
58373;BME280;44177;43.356;27.672;2022-07-10T12:43:33;97476.25;;;30.71;27.65
58373;BME280;44177;43.356;27.672;2022-07-10T12:46:19;97489.94;;;30.90;27.46
58373;BME280;44177;43.356;27.672;2022-07-10T12:49:08;97482.84;;;30.62;27.49
58373;BME280;44177;43.356;27.672;2022-07-10T12:51:47;97477.16;;;30.24;27.84
58373;BME280;44177;43.356;27.672;2022-07-10T12:54:35;97480.94;;;30.21;27.50
58373;BME280;44177;43.356;27.672;2022-07-10T12:57:01;97484.91;;;30.35;27.53
58373;BME280;44177;43.356;27.672;2022-07-10T12:59:27;97484.00;;;30.50;29.19
58373;BME280;44177;43.356;27.672;2022-07-10T13:01:54;97467.91;;;30.50;28.73
58373;BME280;44177;43.356;27.672;2022-07-10T13:04:26;97465.91;;;30.56;28.41
58373;BME280;44177;43.356;27.672;2022-07-10T13:06:52;97486.31;;;30.51;27.88
58373;BME280;44177;43.356;27.672;2022-07-10T13:09:24;97462.31;;;30.24;28.47
58373;BME280;44177;43.356;27.672;2022-07-10T13:11:50;97477.91;;;30.25;28.56
58373;BME280;44177;43.356;27.672;2022-07-10T13:14:17;97472.53;;;30.53;29.28
58373;BME280;44177;43.356;27.672;2022-07-10T13:16:42;97468.78;;;30.62;28.32
58373;BME280;44177;43.356;27.672;2022-07-10T13:19:08;97477.69;;;30.61;28.77